»·PEaware :: DCM205 KMRY-KRDD

DCM205 :: KMRY-KRDD

FLIGHT INFORMATION

Flight Status: Arrived
Operator:
DotCom
More flights by this operator :: More flights under this callsign
Pilot: Chris S. (2433)
Aircraft: AIRBUS A320
(A320)
More flights by this aircraft type
Origin: KMRY Monterey Peninsula
United States
Destination: KRDD Redding Mun
United States
More flights between these airports :: More routes between these airports
Route: +MRY5 SHOEY V27 PYE RBL
File this flight plan on PilotEdge
Remarks:
Altitude:
(Current/Filed)
30,000ft
Speed:
(Current/Filed)
450kts
Departed: 31-Mar-20 07:37 AM
Arrived: 31-Mar-20 08:52 AM
Distance/Time
Traveled:
236nm/1:15
Distance/Time
To Go:
Arrived

Flight Plot

Page will automatically refresh every two minutes.

Flight plan parsing failed; only flown route is shown


Map Options




Map Legend


Flown Route
Filed Route
Departure Airport
Arrival Airport
Navaid (VOR, NDB)
Fix

Horizontal Profiles

Position Reports

Time Latitude Longitude Heading Altitude Ground
Speed
31-Mar-20 07:21 36.587932 -121.850827 238 219ft 0kts
31-Mar-20 07:22 36.587932 -121.850827 238 219ft 0kts
31-Mar-20 07:23 36.587932 -121.850827 238 219ft 0kts
31-Mar-20 07:24 36.587932 -121.850827 238 219ft 0kts
31-Mar-20 07:25 36.587932 -121.850827 238 219ft 0kts
31-Mar-20 07:26 36.587932 -121.850827 238 219ft 0kts
31-Mar-20 07:27 36.587932 -121.850827 238 219ft 0kts
31-Mar-20 07:28 36.587932 -121.850827 238 219ft 0kts
31-Mar-20 07:29 36.587932 -121.850827 238 219ft 0kts
31-Mar-20 07:30 36.587932 -121.850828 238 219ft 0kts
31-Mar-20 07:31 36.587907 -121.850947 270 219ft 2kts
31-Mar-20 07:32 36.588100 -121.851033 46 219ft 4kts
31-Mar-20 07:33 36.586567 -121.845860 119 219ft 21kts
31-Mar-20 07:34 36.584199 -121.838930 113 219ft 21kts
31-Mar-20 07:35 36.583225 -121.833087 290 219ft 9kts
31-Mar-20 07:36 36.591613 -121.858006 288 582ft 167kts
31-Mar-20 07:37 36.626341 -121.893061 350 2873ft 205kts
31-Mar-20 07:38 36.689177 -121.918206 342 5633ft 256kts
31-Mar-20 07:39 36.731456 -121.982391 276 7632ft 274kts
31-Mar-20 07:40 36.740024 -122.078287 279 10947ft 290kts
31-Mar-20 07:41 36.782278 -122.170544 323 12866ft 343kts
31-Mar-20 07:42 36.862898 -122.238605 321 15508ft 357kts
31-Mar-20 07:43 36.945412 -122.312466 321 17870ft 370kts
31-Mar-20 07:47 37.338016 -122.548180 337 25367ft 414kts
31-Mar-20 07:48 37.448175 -122.595076 336 26769ft 423kts
31-Mar-20 07:49 37.560701 -122.643287 336 28054ft 431kts
31-Mar-20 07:50 37.675411 -122.692610 336 29212ft 439kts
31-Mar-20 07:51 37.792072 -122.742923 336 30250ft 446kts
31-Mar-20 07:52 37.909283 -122.793600 336 31590ft 443kts
31-Mar-20 07:53 38.025499 -122.844076 335 32962ft 437kts
31-Mar-20 07:54 38.146821 -122.849390 8 34211ft 456kts
31-Mar-20 07:55 38.269665 -122.809297 7 35144ft 454kts
31-Mar-20 07:56 38.392685 -122.772440 7 35958ft 454kts
31-Mar-20 07:57 38.515403 -122.734600 7 36330ft 453kts
31-Mar-20 07:58 38.638120 -122.696844 7 36330ft 453kts
31-Mar-20 07:59 38.760671 -122.658970 7 36331ft 453kts
31-Mar-20 08:00 38.883317 -122.620892 7 36325ft 452kts
31-Mar-20 08:01 39.005148 -122.582950 7 36267ft 449kts
31-Mar-20 08:02 39.125723 -122.545322 6 36268ft 443kts
31-Mar-20 08:03 39.247108 -122.507299 6 36298ft 451kts
31-Mar-20 08:04 39.368981 -122.468931 6 36300ft 449kts
31-Mar-20 08:05 39.490218 -122.430607 6 35939ft 445kts
31-Mar-20 08:06 39.610845 -122.392424 6 33994ft 445kts
31-Mar-20 08:07 39.730525 -122.354357 6 31532ft 440kts
31-Mar-20 08:08 39.848151 -122.316756 6 29235ft 431kts
31-Mar-20 08:09 39.963304 -122.283423 357 26977ft 416kts
31-Mar-20 08:10 40.076360 -122.275266 353 24686ft 399kts
31-Mar-20 08:11 40.185195 -122.268862 353 22395ft 385kts
31-Mar-20 08:12 40.287849 -122.280425 344 20207ft 361kts
31-Mar-20 08:13 40.385738 -122.297203 344 18130ft 349kts
31-Mar-20 08:14 40.480731 -122.313397 344 16158ft 338kts
31-Mar-20 08:15 40.572541 -122.329246 344 14268ft 328kts
31-Mar-20 08:16 40.658990 -122.354607 334 12369ft 310kts
31-Mar-20 08:17 40.740307 -122.391209 334 10259ft 310kts
31-Mar-20 08:18 40.814248 -122.426915 335 9973ft 253kts
31-Mar-20 08:19 40.870942 -122.385996 79 9214ft 277kts
31-Mar-20 08:20 40.833597 -122.315380 168 7844ft 243kts
31-Mar-20 08:21 40.770887 -122.293542 181 6763ft 209kts
31-Mar-20 08:22 40.716522 -122.294583 183 5364ft 190kts
31-Mar-20 08:23 40.664411 -122.294652 180 3947ft 186kts
31-Mar-20 08:24 40.617392 -122.294701 178 2845ft 143kts
31-Mar-20 08:25 40.580602 -122.294760 179 1960ft 129kts
31-Mar-20 08:26 40.544752 -122.294825 181 1110ft 127kts
31-Mar-20 08:27 40.506684 -122.294977 181 2042ft 172kts
31-Mar-20 08:28 40.453513 -122.295096 178 2996ft 193kts
31-Mar-20 08:29 40.399583 -122.295200 178 3001ft 192kts
31-Mar-20 08:30 40.346070 -122.295292 177 3007ft 192kts
31-Mar-20 08:31 40.292521 -122.295366 177 3016ft 192kts
31-Mar-20 08:32 40.239294 -122.295435 177 3023ft 191kts
31-Mar-20 08:33 40.186057 -122.295483 177 3027ft 191kts
31-Mar-20 08:34 40.135419 -122.309045 226 3026ft 204kts
31-Mar-20 08:35 40.151609 -122.373044 347 3035ft 228kts
31-Mar-20 08:36 40.208236 -122.346006 29 3037ft 220kts
31-Mar-20 08:37 40.263587 -122.311734 30 3027ft 220kts
31-Mar-20 08:38 40.320983 -122.294654 324 3009ft 227kts
31-Mar-20 08:39 40.313013 -122.354830 199 3037ft 196kts
31-Mar-20 08:40 40.260096 -122.358799 177 3024ft 191kts
31-Mar-20 08:41 40.207974 -122.351796 145 3017ft 189kts
31-Mar-20 08:42 40.217026 -122.294092 19 3035ft 222kts
31-Mar-20 08:43 40.279660 -122.289439 3 3031ft 226kts
31-Mar-20 08:44 40.342258 -122.287252 3 3019ft 225kts
31-Mar-20 08:45 40.403968 -122.279190 9 2634ft 215kts
31-Mar-20 08:46 40.460680 -122.270166 8 2505ft 204kts
31-Mar-20 08:47 40.510168 -122.262273 8 2491ft 158kts
31-Mar-20 08:48 40.553608 -122.255691 0 2214ft 157kts
31-Mar-20 08:49 40.558020 -122.290027 197 1655ft 124kts
31-Mar-20 08:50 40.521675 -122.294834 181 592ft 134kts
31-Mar-20 08:51 40.503823 -122.294873 180 516ft 39kts
31-Mar-20 08:52 40.501671 -122.296258 359 516ft 0kts
31-Mar-20 08:53 40.502192 -122.296418 321 516ft 11kts
31-Mar-20 08:54 40.505027 -122.299096 315 516ft 0kts
31-Mar-20 08:55 40.505075 -122.299157 315 516ft 0kts
31-Mar-20 08:56 40.505075 -122.299157 315 516ft 0kts
31-Mar-20 08:57 40.505075 -122.299157 315 516ft 0kts
31-Mar-20 08:59 40.505075 -122.299157 315 516ft 0kts
31-Mar-20 09:00 40.505075 -122.299157 315 516ft 0kts
31-Mar-20 09:01 40.505075 -122.299157 315 516ft 0kts
31-Mar-20 09:02 40.505075 -122.299157 315 516ft 0kts
31-Mar-20 09:03 40.505075 -122.299157 315 516ft 0kts
31-Mar-20 09:04 40.505075 -122.299157 315 516ft 0kts
31-Mar-20 09:05 40.505075 -122.299157 315 516ft 0kts
31-Mar-20 09:06 40.505075 -122.299157 315 516ft 0kts
31-Mar-20 09:07 40.505075 -122.299157 315 516ft 0kts

Navigation Log

Ident Type
Flight plan parsing failed, navigation log unavailable